Time;durP1;ratioP1;P1;durP2;ratioP2;P2;SDS_P1;SDS_P2;PMS_P1;PMS_P2;Temp;Humidity;BMP_temperature;BMP_pressure;BME280_temperature;BME280_humidity;BME280_pressure;Samples;Min_cycle;Max_cycle;Signal;HPM_P1;HPM_P2
2022/11/29 00:01:10;;;;;;;653.42;70.40;;;8.90;99.90;;;;;;5037502;28;20500;-68
2022/11/29 00:03:36;;;;;;;663.00;69.18;;;7.30;99.90;;;;;;5034406;28;20050;-68
2022/11/29 00:06:11;;;;;;;760.83;71.88;;;7.40;99.90;;;;;;5035920;28;20236;-68
2022/11/29 00:08:37;;;;;;;623.05;70.57;;;8.60;99.90;;;;;;5036177;28;20041;-68
2022/11/29 00:11:07;;;;;;;628.03;62.72;;;9.20;99.90;;;;;;5014570;28;20441;-68
2022/11/29 00:13:33;;;;;;;610.88;68.90;;;7.20;99.90;;;;;;5021385;28;20118;-67
2022/11/29 00:16:08;;;;;;;712.70;72.03;;;9.10;99.90;;;;;;5055980;28;20044;-67
2022/11/29 00:18:34;;;;;;;620.05;66.68;;;9.30;99.90;;;;;;5023758;28;20044;-70
2022/11/29 00:21:03;;;;;;;647.67;67.15;;;7.50;99.90;;;;;;5020166;28;20040;-68
2022/11/29 00:23:28;;;;;;;722.47;69.20;;;9.00;99.90;;;;;;5020285;28;20052;-67
2022/11/29 00:25:54;;;;;;;1014.53;77.57;;;9.00;99.90;;;;;;5015231;28;20330;-67
2022/11/29 00:28:20;;;;;;;620.40;68.40;;;9.10;99.90;;;;;;5036845;28;20077;-68
2022/11/29 00:30:46;;;;;;;692.08;66.60;;;8.50;99.90;;;;;;5036020;28;20071;-68
2022/11/29 00:33:11;;;;;;;571.05;66.25;;;7.20;99.90;;;;;;5051866;28;20478;-69
2022/11/29 00:35:37;;;;;;;486.40;59.00;;;9.10;99.90;;;;;;5001979;28;20510;-68
2022/11/29 00:38:03;;;;;;;526.70;65.45;;;7.50;99.90;;;;;;5019868;28;20048;-67
2022/11/29 00:40:28;;;;;;;498.60;61.40;;;7.50;99.90;;;;;;5018167;28;20075;-67
2022/11/29 00:42:54;;;;;;;477.50;59.88;;;9.20;99.90;;;;;;5032980;28;20048;-67
2022/11/29 00:45:19;;;;;;;549.17;64.82;;;9.00;99.90;;;;;;5035797;28;20056;-69
2022/11/29 00:47:45;;;;;;;616.80;62.90;;;8.80;99.90;;;;;;5019117;28;20127;-67
2022/11/29 00:50:11;;;;;;;647.25;66.63;;;7.90;99.90;;;;;;5015275;28;20588;-68
2022/11/29 00:52:37;;;;;;;689.08;70.35;;;7.30;99.90;;;;;;5016650;28;20119;-66
2022/11/29 00:55:02;;;;;;;569.50;61.53;;;7.40;99.90;;;;;;5019875;28;20047;-67
2022/11/29 00:57:28;;;;;;;557.83;62.92;;;8.00;99.90;;;;;;5031722;28;20048;-68
2022/11/29 00:59:54;;;;;;;591.85;65.88;;;7.10;99.90;;;;;;5035817;28;20479;-68
2022/11/29 01:02:19;;;;;;;439.63;56.50;;;8.90;99.90;;;;;;5002709;28;20045;-68
2022/11/29 01:04:45;;;;;;;392.30;52.90;;;8.90;99.90;;;;;;5021032;28;20041;-67
2022/11/29 01:07:11;;;;;;;343.88;48.72;;;8.30;99.90;;;;;;5022624;28;20063;-66
2022/11/29 01:09:37;;;;;;;292.30;47.33;;;8.90;99.90;;;;;;5056913;28;20176;-66
2022/11/29 01:12:02;;;;;;;294.30;49.15;;;7.20;99.90;;;;;;5020741;28;20120;-66
2022/11/29 01:14:28;;;;;;;315.45;46.92;;;7.40;99.90;;;;;;5018286;28;20057;-66
2022/11/29 01:16:54;;;;;;;377.17;50.42;;;8.40;99.90;;;;;;5019520;28;20437;-67
2022/11/29 01:19:19;;;;;;;310.45;47.50;;;8.60;99.90;;;;;;5018573;28;20037;-67
2022/11/29 01:21:45;;;;;;;342.17;47.47;;;8.40;99.90;;;;;;5017246;28;20032;-67
2022/11/29 01:24:10;;;;;;;397.70;52.42;;;7.20;99.90;;;;;;5018178;28;20036;-67
2022/11/29 01:26:36;;;;;;;426.98;50.83;;;6.80;99.90;;;;;;5039639;28;20044;-67
2022/11/29 01:29:02;;;;;;;504.25;56.28;;;8.90;99.90;;;;;;5034776;28;20163;-68
2022/11/29 01:31:31;;;;;;;452.27;50.15;;;6.60;99.90;;;;;;5038586;28;20529;-69
2022/11/29 01:34:00;;;;;;;513.03;53.08;;;6.90;99.90;;;;;;5022843;28;20045;-69
2022/11/29 01:36:26;;;;;;;525.63;55.47;;;7.00;99.90;;;;;;5023061;28;20439;-65
2022/11/29 01:38:53;;;;;;;469.42;51.05;;;6.70;99.90;;;;;;5039268;28;20044;-68
2022/11/29 01:41:25;;;;;;;464.40;50.63;;;6.60;99.90;;;;;;5037883;28;20040;-69
2022/11/29 01:44:01;;;;;;;617.53;59.85;;;7.70;99.90;;;;;;5036263;28;20650;-68
2022/11/29 01:46:31;;;;;;;448.80;50.35;;;6.60;99.90;;;;;;5019481;28;20212;-68
2022/11/29 01:49:26;;;;;;;446.65;51.25;;;7.00;99.90;;;;;;5020471;28;20056;-67
2022/11/29 01:51:55;;;;;;;459.55;53.17;;;8.40;99.90;;;;;;5034949;28;20048;-67
2022/11/29 01:54:21;;;;;;;441.63;51.20;;;8.50;99.90;;;;;;5021956;28;20040;-67
2022/11/29 01:56:49;;;;;;;544.38;54.53;;;6.70;99.90;;;;;;4994626;28;20037;-67
2022/11/29 01:59:18;;;;;;;644.08;60.08;;;8.10;99.90;;;;;;5036119;28;20044;-67
2022/11/29 02:01:44;;;;;;;577.17;54.55;;;8.70;99.90;;;;;;5036068;28;20180;-68
2022/11/29 02:04:11;;;;;;;558.83;54.10;;;7.00;99.90;;;;;;5020319;28;20098;-68
2022/11/29 02:06:38;;;;;;;495.67;50.47;;;8.40;99.90;;;;;;5035597;28;20076;-68
2022/11/29 02:09:14;;;;;;;526.75;54.22;;;6.60;99.90;;;;;;5021612;28;20113;-67
2022/11/29 02:11:55;;;;;;;543.67;52.85;;;8.70;99.90;;;;;;5004811;28;20264;-68
2022/11/29 02:15:08;;;;;;;508.40;49.97;;;7.00;99.90;;;;;;4998045;28;1093039;-69
2022/11/29 02:17:51;;;;;;;525.25;54.65;;;8.30;99.90;;;;;;5024927;28;20044;-68
2022/11/29 02:20:19;;;;;;;491.00;51.43;;;7.40;99.90;;;;;;5038937;28;20040;-68
2022/11/29 02:22:47;;;;;;;553.20;57.22;;;8.80;99.90;;;;;;5036705;28;20598;-68
2022/11/29 02:25:38;;;;;;;538.30;57.17;;;7.90;99.90;;;;;;5038273;28;20453;-68
2022/11/29 02:28:22;;;;;;;557.08;53.17;;;6.90;99.90;;;;;;5037073;28;20047;-68
2022/11/29 02:31:20;;;;;;;662.67;60.38;;;7.60;99.90;;;;;;5054003;28;20037;-69
2022/11/29 02:34:05;;;;;;;487.90;54.63;;;8.60;99.90;;;;;;5035656;28;20153;-69
2022/11/29 02:37:02;;;;;;;603.17;61.97;;;7.70;99.90;;;;;;5038510;28;20036;-69
2022/11/29 02:39:52;;;;;;;684.28;61.42;;;8.10;99.90;;;;;;5036345;28;20049;-69
2022/11/29 02:42:31;;;;;;;794.47;61.65;;;8.20;99.90;;;;;;5037254;28;20397;-69
2022/11/29 02:45:22;;;;;;;696.53;62.15;;;6.90;99.90;;;;;;5037138;28;20205;-68
2022/11/29 02:47:53;;;;;;;789.97;65.00;;;8.30;99.90;;;;;;5027473;28;20459;-68
2022/11/29 02:50:41;;;;;;;607.40;58.80;;;8.70;99.90;;;;;;5036907;28;20040;-68
2022/11/29 02:53:42;;;;;;;513.28;57.63;;;8.30;99.90;;;;;;5034436;28;20033;-68
2022/11/29 02:56:26;;;;;;;446.23;55.28;;;8.60;99.90;;;;;;5003802;28;20256;-67
2022/11/29 02:59:41;;;;;;;349.92;51.33;;;6.60;99.90;;;;;;5036630;28;20580;-67
2022/11/29 03:02:25;;;;;;;349.83;46.78;;;8.70;99.90;;;;;;5035035;28;20037;-68
2022/11/29 03:05:17;;;;;;;;;;;6.60;99.90;;;;;;5052213;28;20576;-68
2022/11/29 03:08:09;;;;;;;455.00;55.13;;;7.20;99.90;;;;;;5023617;28;19997;-66
2022/11/29 03:11:01;;;;;;;483.45;57.38;;;7.40;99.90;;;;;;5021763;28;20389;-66
2022/11/29 03:13:37;;;;;;;484.38;56.00;;;7.00;99.90;;;;;;5037991;28;20262;-69
2022/11/29 03:16:18;;;;;;;540.85;58.80;;;8.30;99.90;;;;;;5036292;28;20517;-69
2022/11/29 03:19:09;;;;;;;517.38;55.70;;;6.60;99.90;;;;;;5035524;28;20070;-68
2022/11/29 03:21:43;;;;;;;472.10;58.80;;;7.30;99.90;;;;;;5034220;28;20044;-68
2022/11/29 03:24:19;;;;;;;303.23;51.58;;;8.10;99.90;;;;;;5017616;28;20393;-67
2022/11/29 03:26:50;;;;;;;312.08;50.10;;;6.70;99.90;;;;;;5024983;28;20071;-67
2022/11/29 03:29:35;;;;;;;343.02;51.75;;;8.80;99.90;;;;;;5018923;28;20055;-68
2022/11/29 03:32:26;;;;;;;355.80;55.05;;;7.10;99.90;;;;;;5006895;28;20076;-69
2022/11/29 03:35:12;;;;;;;372.95;55.88;;;7.70;99.90;;;;;;5031264;28;20110;-69
2022/11/29 03:38:07;;;;;;;363.10;52.85;;;8.60;99.90;;;;;;5017925;28;20158;-69
2022/11/29 03:40:59;;;;;;;333.45;52.97;;;8.60;99.90;;;;;;4988354;28;20052;-69
2022/11/29 03:43:59;;;;;;;364.35;57.17;;;8.80;99.90;;;;;;5019787;28;20048;-68
2022/11/29 03:46:46;;;;;;;323.73;52.58;;;6.50;99.90;;;;;;5019151;28;20047;-67
2022/11/29 03:49:39;;;;;;;398.52;57.90;;;6.90;99.90;;;;;;5018132;28;20040;-68
2022/11/29 03:52:18;;;;;;;332.83;54.27;;;8.30;99.90;;;;;;5052294;28;20036;-69
2022/11/29 03:55:04;;;;;;;350.60;54.55;;;8.40;99.90;;;;;;5034701;28;20102;-68
2022/11/29 03:58:09;;;;;;;335.92;53.63;;;8.40;99.90;;;;;;5036175;28;20516;-68
2022/11/29 04:00:48;;;;;;;356.10;54.78;;;6.40;99.90;;;;;;5017203;28;20301;-68
2022/11/29 04:03:29;;;;;;;393.17;55.60;;;6.70;99.90;;;;;;5034899;28;20048;-67
2022/11/29 04:06:30;;;;;;;440.88;58.33;;;8.40;99.90;;;;;;5035994;28;20552;-68
2022/11/29 04:09:34;;;;;;;361.13;52.58;;;7.70;99.90;;;;;;5007167;28;20423;-66
2022/11/29 04:12:25;;;;;;;377.88;54.17;;;7.00;99.90;;;;;;5038259;28;20129;-66
2022/11/29 04:15:02;;;;;;;328.48;53.38;;;7.50;99.90;;;;;;5030615;28;20057;-65
2022/11/29 04:17:35;;;;;;;267.92;48.53;;;6.80;99.90;;;;;;5022359;28;20051;-67
2022/11/29 04:20:25;;;;;;;269.57;51.70;;;7.40;99.90;;;;;;5018472;28;20066;-68
2022/11/29 04:23:09;;;;;;;275.75;52.53;;;8.40;99.90;;;;;;5026245;28;20282;-67
2022/11/29 04:25:40;;;;;;;234.05;49.58;;;8.20;99.90;;;;;;5034422;28;20080;-68
2022/11/29 04:28:27;;;;;;;216.45;47.65;;;8.20;99.90;;;;;;5019848;28;20055;-68
2022/11/29 04:31:12;;;;;;;205.10;47.70;;;6.80;99.90;;;;;;5021649;28;20327;-67
2022/11/29 04:34:00;;;;;;;246.82;47.42;;;8.60;99.90;;;;;;5036633;28;20246;-67
2022/11/29 04:36:31;;;;;;;219.43;48.25;;;6.40;99.90;;;;;;5037513;28;20097;-65
2022/11/29 04:39:27;;;;;;;229.30;49.22;;;8.20;99.90;;;;;;5036934;28;20354;-67
2022/11/29 04:42:41;;;;;;;228.75;50.03;;;7.80;99.90;;;;;;5036676;28;20180;-65
2022/11/29 04:45:42;;;;;;;232.98;50.10;;;7.50;99.90;;;;;;5038605;28;20055;-65
2022/11/29 04:48:48;;;;;;;249.73;52.00;;;8.40;99.90;;;;;;5018934;28;20321;-67
2022/11/29 04:51:30;;;;;;;208.57;48.63;;;7.60;99.90;;;;;;4971232;28;20053;-67
2022/11/29 04:54:19;;;;;;;202.63;48.53;;;8.60;99.90;;;;;;4956170;28;20182;-67
2022/11/29 04:56:53;;;;;;;179.25;45.92;;;7.90;99.90;;;;;;4998959;28;20048;-67
2022/11/29 04:59:35;;;;;;;232.98;49.90;;;8.10;99.90;;;;;;5035742;28;20067;-67
2022/11/29 05:02:07;;;;;;;222.30;50.85;;;7.90;99.90;;;;;;5037505;28;20498;-67
2022/11/29 05:04:45;;;;;;;204.05;47.17;;;7.10;99.90;;;;;;5038247;28;20550;-67
2022/11/29 05:07:38;;;;;;;215.88;49.60;;;8.50;99.90;;;;;;5046198;28;20131;-68
2022/11/29 05:10:34;;;;;;;245.25;52.03;;;6.80;99.90;;;;;;5039524;28;20360;-67
2022/11/29 05:13:09;;;;;;;179.65;48.10;;;6.20;99.90;;;;;;5019372;28;20102;-68
2022/11/29 05:16:01;;;;;;;201.55;49.92;;;8.70;99.90;;;;;;5057449;28;20151;-68
2022/11/29 05:18:43;;;;;;;215.93;51.85;;;7.20;99.90;;;;;;5022696;28;20036;-68
2022/11/29 05:21:44;;;;;;;194.73;52.58;;;8.50;99.90;;;;;;5020248;28;20040;-67
2022/11/29 05:24:30;;;;;;;176.25;49.63;;;8.60;99.90;;;;;;4985596;28;20063;-67
2022/11/29 05:27:03;;;;;;;182.95;51.47;;;7.90;99.90;;;;;;5036248;28;20098;-67
2022/11/29 05:30:11;;;;;;;184.38;52.50;;;6.30;99.90;;;;;;5053063;28;20059;-68
2022/11/29 05:33:07;;;;;;;207.30;54.35;;;6.40;99.90;;;;;;5037544;28;20040;-68
2022/11/29 05:36:05;;;;;;;203.52;52.75;;;7.10;99.90;;;;;;5037005;28;20810;-67
2022/11/29 05:38:37;;;;;;;172.45;48.47;;;7.60;99.90;;;;;;5038241;28;20050;-67
2022/11/29 05:41:14;;;;;;;173.75;50.33;;;6.70;99.90;;;;;;5056914;28;20059;-67
2022/11/29 05:43:53;;;;;;;185.65;50.33;;;7.00;99.90;;;;;;5035005;28;20048;-67
2022/11/29 05:46:42;;;;;;;199.95;52.97;;;6.50;99.90;;;;;;5039365;28;20033;-68
2022/11/29 05:49:24;;;;;;;180.82;51.45;;;7.30;99.90;;;;;;5038599;28;20087;-68
2022/11/29 05:52:03;;;;;;;155.75;47.08;;;8.00;99.90;;;;;;5036873;28;20083;-68
2022/11/29 05:54:35;;;;;;;138.68;43.78;;;8.10;99.90;;;;;;5039752;28;20036;-68
2022/11/29 05:57:13;;;;;;;155.70;46.67;;;6.60;99.90;;;;;;5038825;28;20040;-68
2022/11/29 05:59:40;;;;;;;167.27;50.13;;;6.80;99.90;;;;;;5023992;28;20597;-68
2022/11/29 06:02:24;;;;;;;146.23;45.88;;;8.20;99.90;;;;;;5022077;28;20060;-69
2022/11/29 06:04:57;;;;;;;146.60;47.35;;;7.90;99.90;;;;;;5037600;28;20176;-67
2022/11/29 06:07:53;;;;;;;161.93;49.37;;;7.50;99.90;;;;;;5054687;28;20087;-67
2022/11/29 06:10:24;;;;;;;151.68;46.40;;;7.00;99.90;;;;;;5037706;28;20129;-67
2022/11/29 06:13:02;;;;;;;155.00;45.97;;;7.50;99.90;;;;;;5037898;28;20218;-66
2022/11/29 06:15:37;;;;;;;162.77;46.97;;;7.90;99.90;;;;;;5017186;28;20060;-67
2022/11/29 06:18:24;;;;;;;196.43;53.80;;;8.00;99.90;;;;;;5037823;28;20369;-67
2022/11/29 06:21:13;;;;;;;179.48;50.03;;;8.00;99.90;;;;;;5044647;28;20427;-67
2022/11/29 06:23:57;;;;;;;180.45;49.28;;;6.50;99.90;;;;;;5001703;28;20060;-66
2022/11/29 06:26:29;;;;;;;170.70;50.17;;;7.40;99.90;;;;;;5037912;28;20053;-67
2022/11/29 06:29:19;;;;;;;202.20;53.20;;;8.10;99.90;;;;;;5054936;28;20128;-66
2022/11/29 06:31:57;;;;;;;170.63;49.25;;;7.90;99.90;;;;;;5051333;28;20446;-67
2022/11/29 06:34:47;;;;;;;206.25;55.05;;;8.20;99.90;;;;;;5038362;28;20408;-66
2022/11/29 06:37:21;;;;;;;160.63;46.25;;;7.00;99.90;;;;;;5037432;28;20490;-67
2022/11/29 06:39:47;;;;;;;184.05;50.35;;;7.70;99.90;;;;;;5036882;28;20068;-67
2022/11/29 06:42:14;;;;;;;173.38;49.72;;;6.80;99.90;;;;;;5009301;28;20128;-67
2022/11/29 06:44:40;;;;;;;190.23;50.47;;;8.10;99.90;;;;;;5020762;28;20083;-67
2022/11/29 06:47:12;;;;;;;190.20;53.10;;;6.90;99.90;;;;;;5016150;28;20131;-68
2022/11/29 06:49:52;;;;;;;177.90;49.20;;;6.80;99.90;;;;;;5038315;28;20040;-67
2022/11/29 06:52:40;;;;;;;214.80;53.97;;;8.10;99.90;;;;;;5040313;28;20280;-68
2022/11/29 06:55:13;;;;;;;236.57;57.45;;;8.20;99.90;;;;;;5038457;28;20036;-68
2022/11/29 06:58:07;;;;;;;175.88;48.72;;;7.80;99.90;;;;;;5055288;28;20055;-68
2022/11/29 07:01:02;;;;;;;136.40;43.92;;;7.60;99.90;;;;;;5036126;28;20166;-67
2022/11/29 07:03:51;;;;;;;138.15;45.15;;;6.90;99.90;;;;;;5028070;28;20064;-67
2022/11/29 07:06:26;;;;;;;137.60;45.35;;;7.70;99.90;;;;;;5036894;28;20322;-68
2022/11/29 07:08:59;;;;;;;149.23;46.00;;;6.70;99.90;;;;;;5018611;28;20044;-68
2022/11/29 07:11:26;;;;;;;117.90;39.25;;;8.10;99.90;;;;;;5036465;28;20452;-68
2022/11/29 07:13:52;;;;;;;143.27;45.53;;;7.40;99.90;;;;;;5019052;28;20037;-67
2022/11/29 07:16:42;;;;;;;138.68;44.72;;;6.90;99.90;;;;;;5013738;28;20040;-69
2022/11/29 07:19:40;;;;;;;125.28;42.58;;;8.00;99.90;;;;;;5019020;28;20041;-69
2022/11/29 07:22:25;;;;;;;126.03;42.60;;;6.70;99.90;;;;;;5003603;28;20063;-67
2022/11/29 07:25:12;;;;;;;118.32;41.60;;;7.00;99.90;;;;;;5035418;28;20052;-68
2022/11/29 07:28:04;;;;;;;123.47;39.67;;;6.60;99.90;;;;;;5022327;28;20047;-68
2022/11/29 07:30:54;;;;;;;100.53;36.45;;;7.60;99.90;;;;;;5039536;28;20295;-69
2022/11/29 07:34:12;;;;;;;114.18;38.92;;;6.70;99.90;;;;;;5053684;28;20047;-68
2022/11/29 07:36:43;;;;;;;122.75;41.08;;;6.50;99.90;;;;;;5018201;28;20041;-68
2022/11/29 07:39:09;;;;;;;118.55;40.45;;;7.90;99.90;;;;;;5038297;28;20075;-67
2022/11/29 07:41:44;;;;;;;138.50;45.05;;;7.90;99.90;;;;;;5039105;28;20155;-67
2022/11/29 07:44:20;;;;;;;108.50;38.00;;;6.60;99.90;;;;;;5041257;28;20044;-69
2022/11/29 07:46:45;;;;;;;127.10;40.80;;;8.00;99.90;;;;;;5040701;28;20674;-66
2022/11/29 07:49:11;;;;;;;99.05;35.30;;;6.60;99.90;;;;;;5022937;28;20408;-66
2022/11/29 07:51:37;;;;;;;116.63;38.80;;;6.60;99.90;;;;;;5040922;28;20179;-66
2022/11/29 07:54:03;;;;;;;107.97;38.47;;;7.00;99.90;;;;;;5041431;28;20040;-66
2022/11/29 07:56:29;;;;;;;113.75;40.03;;;7.70;99.90;;;;;;5058360;28;20040;-67
2022/11/29 07:58:55;;;;;;;82.75;31.48;;;7.90;99.90;;;;;;5040727;28;20869;-65
2022/11/29 08:01:22;;;;;;;114.60;39.50;;;8.40;99.90;;;;;;5040475;28;20413;-68
2022/11/29 08:03:48;;;;;;;102.15;36.63;;;6.90;99.90;;;;;;5020369;28;20048;-69
2022/11/29 08:06:14;;;;;;;87.72;34.70;;;7.30;99.90;;;;;;5004607;28;20040;-67
2022/11/29 08:08:40;;;;;;;99.82;35.97;;;7.80;99.90;;;;;;5041042;28;20094;-67
2022/11/29 08:11:11;;;;;;;106.30;36.60;;;7.20;99.90;;;;;;5039075;28;20041;-68
2022/11/29 08:13:36;;;;;;;85.28;32.38;;;8.40;99.90;;;;;;5039331;28;20055;-69
2022/11/29 08:16:02;;;;;;;76.72;33.20;;;8.10;99.90;;;;;;5039040;28;20769;-69
2022/11/29 08:18:28;;;;;;;81.60;33.28;;;7.20;99.90;;;;;;5020840;28;20238;-69
2022/11/29 08:20:53;;;;;;;94.20;34.17;;;8.30;99.90;;;;;;5003649;28;20040;-69
2022/11/29 08:23:19;;;;;;;70.43;29.10;;;8.40;99.90;;;;;;5006514;28;20346;-67
2022/11/29 08:25:44;;;;;;;66.60;27.30;;;8.50;99.90;;;;;;5022500;28;20048;-66
2022/11/29 08:28:10;;;;;;;70.75;29.95;;;8.00;99.90;;;;;;5038479;28;21196;-68
2022/11/29 08:30:36;;;;;;;74.63;30.45;;;7.90;99.90;;;;;;5038270;28;20052;-69
2022/11/29 08:33:03;;;;;;;93.93;33.65;;;7.00;99.90;;;;;;5038357;28;20032;-68
2022/11/29 08:35:30;;;;;;;88.60;32.13;;;7.20;99.90;;;;;;5036858;28;20033;-70
2022/11/29 08:37:56;;;;;;;63.30;25.08;;;8.60;99.90;;;;;;5040374;28;20086;-69
2022/11/29 08:40:23;;;;;;;75.22;29.60;;;7.50;99.90;;;;;;5042673;28;20126;-69
2022/11/29 08:42:48;;;;;;;70.72;27.98;;;8.50;99.90;;;;;;5025045;28;20044;-67
2022/11/29 08:45:14;;;;;;;76.55;29.52;;;8.70;99.90;;;;;;5042925;28;20090;-68
2022/11/29 08:47:41;;;;;;;64.78;26.83;;;8.20;99.90;;;;;;5026047;28;20048;-68
2022/11/29 08:50:13;;;;;;;57.13;24.42;;;8.80;99.90;;;;;;5040453;28;20040;-68
2022/11/29 08:55:41;;;;;;;63.92;23.75;;;8.00;99.90;;;;;;5041693;28;20045;-68
2022/11/29 08:58:13;;;;;;;51.42;21.65;;;7.80;99.90;;;;;;5040789;28;20524;-69
2022/11/29 09:00:39;;;;;;;56.05;21.73;;;8.90;99.90;;;;;;5041797;28;20200;-68
2022/11/29 09:05:51;;;;;;;52.25;20.85;;;7.60;99.90;;;;;;5031123;28;20060;-67
2022/11/29 09:08:17;;;;;;;48.58;21.63;;;8.80;99.90;;;;;;5024194;28;20418;-67
2022/11/29 09:10:43;;;;;;;51.42;22.88;;;7.50;99.90;;;;;;5040228;28;20032;-67
2022/11/29 09:13:10;;;;;;;44.22;21.52;;;7.30;99.90;;;;;;5040381;28;20055;-67
2022/11/29 09:15:37;;;;;;;50.80;22.02;;;7.90;99.90;;;;;;5041740;28;20044;-67
2022/11/29 09:18:04;;;;;;;53.67;23.92;;;7.60;99.90;;;;;;5041595;28;20063;-67
2022/11/29 09:20:31;;;;;;;48.30;22.95;;;8.70;99.90;;;;;;5023722;28;20052;-67
2022/11/29 09:22:58;;;;;;;48.47;22.35;;;7.70;99.90;;;;;;5041591;28;20523;-68
2022/11/29 09:25:24;;;;;;;48.22;22.35;;;7.70;99.90;;;;;;5039050;28;20124;-67
2022/11/29 09:27:50;;;;;;;48.67;21.10;;;9.10;99.90;;;;;;5024271;28;20078;-67
2022/11/29 09:30:16;;;;;;;51.67;21.13;;;7.80;99.90;;;;;;5040189;28;20032;-67
2022/11/29 09:32:42;;;;;;;61.78;24.05;;;7.80;99.90;;;;;;5024545;28;20497;-66
2022/11/29 09:35:08;;;;;;;45.85;21.48;;;8.20;99.90;;;;;;5025061;28;20047;-67
2022/11/29 09:37:35;;;;;;;59.75;24.50;;;7.90;99.90;;;;;;5039845;28;20049;-68
2022/11/29 09:40:03;;;;;;;55.25;24.92;;;8.60;99.90;;;;;;5039983;28;20048;-69
2022/11/29 09:42:40;;;;;;;51.90;21.83;;;8.60;99.90;;;;;;5040470;28;20048;-67
2022/11/29 09:45:17;;;;;;;54.40;23.50;;;8.10;99.90;;;;;;5039469;28;20040;-66
2022/11/29 09:47:58;;;;;;;47.65;22.52;;;9.40;99.90;;;;;;5023765;28;20049;-67
2022/11/29 09:50:32;;;;;;;46.88;21.88;;;8.30;99.90;;;;;;5041066;28;20049;-67
2022/11/29 09:53:00;;;;;;;56.65;23.02;;;8.20;99.90;;;;;;5039633;28;20562;-67
2022/11/29 09:55:41;;;;;;;54.10;22.63;;;9.00;99.90;;;;;;5041474;28;20044;-67
2022/11/29 09:58:14;;;;;;;50.13;22.85;;;9.40;99.90;;;;;;5022644;28;20045;-67
2022/11/29 10:00:47;;;;;;;54.42;24.63;;;8.30;99.90;;;;;;5057592;28;20449;-68
2022/11/29 10:03:35;;;;;;;50.13;24.85;;;8.90;99.90;;;;;;5040510;28;20378;-68
2022/11/29 10:06:12;;;;;;;67.43;28.98;;;9.60;99.90;;;;;;5058306;28;20087;-67
2022/11/29 10:09:05;;;;;;;60.45;27.08;;;9.70;99.90;;;;;;5057537;28;20093;-67
2022/11/29 10:11:51;;;;;;;55.53;26.67;;;9.30;99.90;;;;;;5041540;28;20074;-68
2022/11/29 10:14:25;;;;;;;55.80;27.48;;;9.40;99.90;;;;;;5031361;28;20139;-67
2022/11/29 10:16:54;;;;;;;57.25;26.42;;;9.00;99.90;;;;;;5056476;28;20049;-67
2022/11/29 10:19:39;;;;;;;46.22;23.30;;;9.50;99.90;;;;;;5058829;28;20498;-68
2022/11/29 10:22:25;;;;;;;69.40;28.42;;;9.20;99.90;;;;;;5039848;28;20393;-68
2022/11/29 10:24:56;;;;;;;57.42;25.77;;;8.60;99.90;;;;;;5037021;28;20367;-66
2022/11/29 10:27:22;;;;;;;46.72;24.08;;;9.40;99.90;;;;;;5022397;28;20052;-68
2022/11/29 10:29:50;;;;;;;44.35;23.35;;;8.60;99.90;;;;;;5037411;28;20214;-68
2022/11/29 10:32:19;;;;;;;44.97;22.27;;;8.10;99.90;;;;;;5021782;28;20048;-68
2022/11/29 10:34:45;;;;;;;46.97;24.55;;;9.30;99.90;;;;;;5039051;28;20539;-68
2022/11/29 10:37:20;;;;;;;43.42;22.42;;;9.20;99.90;;;;;;5040771;28;20044;-67
2022/11/29 10:39:53;;;;;;;59.58;26.50;;;9.10;99.90;;;;;;5037883;28;20044;-68
2022/11/29 10:45:22;;;;;;;48.08;23.15;;;7.90;99.90;;;;;;5035131;28;20638;-67
2022/11/29 10:47:49;;;;;;;57.28;25.92;;;9.10;99.90;;;;;;5037906;28;20044;-67
2022/11/29 10:50:34;;;;;;;54.83;25.33;;;8.10;99.90;;;;;;5023503;28;20509;-67
2022/11/29 10:53:09;;;;;;;41.63;21.08;;;8.80;99.90;;;;;;5057389;28;20055;-67
2022/11/29 10:55:47;;;;;;;44.13;23.13;;;9.20;99.90;;;;;;5039292;28;20287;-67
2022/11/29 10:58:24;;;;;;;41.70;21.48;;;9.50;99.90;;;;;;5039745;28;20036;-67
2022/11/29 11:00:52;;;;;;;49.00;25.05;;;8.30;99.90;;;;;;5036919;28;20147;-68
2022/11/29 11:03:27;;;;;;;38.33;20.58;;;8.80;99.90;;;;;;5039117;28;20040;-68
2022/11/29 11:06:10;;;;;;;38.85;21.45;;;8.40;99.90;;;;;;5023566;28;20048;-68
2022/11/29 11:08:37;;;;;;;39.73;20.73;;;8.20;99.90;;;;;;5038447;28;20622;-69
2022/11/29 11:11:06;;;;;;;38.70;21.98;;;9.20;99.90;;;;;;5038595;28;20041;-68
2022/11/29 11:13:32;;;;;;;41.55;20.77;;;8.30;99.90;;;;;;5022488;28;20047;-67
2022/11/29 11:16:14;;;;;;;44.72;24.15;;;9.40;99.90;;;;;;5032481;28;20049;-67
2022/11/29 11:18:40;;;;;;;66.38;28.08;;;9.30;99.90;;;;;;5035045;28;20102;-68
2022/11/29 11:21:11;;;;;;;66.53;26.85;;;9.50;99.90;;;;;;5035680;28;20114;-68
2022/11/29 11:23:45;;;;;;;67.93;27.27;;;8.50;99.90;;;;;;5036080;28;20048;-68
2022/11/29 11:26:13;;;;;;;98.65;29.02;;;8.80;99.90;;;;;;5017804;28;20633;-68
2022/11/29 11:29:00;;;;;;;76.53;25.90;;;8.70;99.90;;;;;;5035778;28;20049;-69
2022/11/29 11:31:27;;;;;;;97.68;30.20;;;9.10;99.90;;;;;;5033470;28;20064;-68
2022/11/29 11:33:53;;;;;;;110.38;31.10;;;9.00;99.90;;;;;;5034370;28;20419;-68
2022/11/29 11:36:19;;;;;;;112.93;30.13;;;8.90;99.90;;;;;;5036061;28;20036;-68
2022/11/29 11:39:07;;;;;;;189.57;40.15;;;8.20;99.90;;;;;;5019511;28;20059;-68
2022/11/29 11:44:39;;;;;;;204.60;39.53;;;7.40;99.90;;;;;;5035562;28;20695;-67
2022/11/29 11:47:12;;;;;;;190.38;41.08;;;7.70;99.90;;;;;;5032858;28;20044;-68
2022/11/29 11:49:55;;;;;;;240.35;44.78;;;8.70;99.90;;;;;;5035136;28;20533;-68
2022/11/29 11:52:23;;;;;;;221.17;45.90;;;7.50;99.90;;;;;;5035586;28;20040;-68
2022/11/29 11:54:57;;;;;;;247.48;45.25;;;7.50;99.90;;;;;;5035011;28;20880;-68
2022/11/29 11:57:25;;;;;;;192.93;39.40;;;7.50;99.90;;;;;;5035336;28;20094;-68
2022/11/29 11:59:53;;;;;;;197.38;39.22;;;7.10;99.90;;;;;;5035888;28;20119;-67
2022/11/29 12:02:27;;;;;;;162.68;34.22;;;7.40;99.90;;;;;;5035069;28;20041;-68
2022/11/29 12:04:57;;;;;;;182.98;35.42;;;8.00;99.90;;;;;;5031755;28;20080;-68
2022/11/29 12:07:41;;;;;;;194.75;36.28;;;8.00;99.90;;;;;;5035297;28;20049;-67
2022/11/29 12:10:19;;;;;;;203.93;38.92;;;8.40;99.90;;;;;;5018555;28;20032;-68
2022/11/29 12:12:46;;;;;;;248.88;40.65;;;8.30;99.90;;;;;;5034391;28;20238;-68
2022/11/29 12:15:17;;;;;;;230.02;38.72;;;8.30;99.90;;;;;;5034953;28;20056;-67
2022/11/29 12:18:07;;;;;;;238.82;41.45;;;7.00;99.90;;;;;;5035532;28;20120;-68
2022/11/29 12:20:44;;;;;;;200.48;42.13;;;7.40;99.90;;;;;;5031036;28;20057;-68
2022/11/29 12:23:13;;;;;;;167.90;37.83;;;7.20;99.90;;;;;;5019149;28;20071;-69
2022/11/29 12:25:48;;;;;;;207.57;42.72;;;8.30;99.90;;;;;;5051460;28;20053;-68
2022/11/29 12:28:16;;;;;;;169.90;40.30;;;6.70;99.90;;;;;;5017096;28;20076;-67
2022/11/29 12:31:15;;;;;;;149.38;35.70;;;8.20;99.90;;;;;;5034731;28;20041;-68
2022/11/29 12:33:45;;;;;;;166.43;38.67;;;7.10;99.90;;;;;;4994248;28;20103;-67
2022/11/29 12:36:38;;;;;;;175.18;39.55;;;7.10;99.90;;;;;;5031350;28;20259;-68
2022/11/29 12:39:21;;;;;;;173.30;41.63;;;6.70;99.90;;;;;;5018143;28;20473;-67
2022/11/29 12:42:16;;;;;;;174.77;38.97;;;8.00;99.90;;;;;;5016733;28;20059;-67
2022/11/29 12:45:10;;;;;;;171.70;40.60;;;8.30;99.90;;;;;;5014999;28;20536;-68
2022/11/29 12:48:08;;;;;;;167.20;38.73;;;7.40;99.90;;;;;;5034948;28;20119;-68
2022/11/29 12:50:55;;;;;;;156.57;39.53;;;7.30;99.90;;;;;;5012883;28;20068;-67
2022/11/29 12:53:43;;;;;;;161.07;40.10;;;6.50;99.90;;;;;;5034875;28;20114;-67
2022/11/29 12:56:26;;;;;;;188.23;43.05;;;7.50;99.90;;;;;;5035690;28;20454;-67
2022/11/29 12:59:00;;;;;;;134.48;37.60;;;7.90;99.90;;;;;;5032812;28;20494;-67
2022/11/29 13:01:56;;;;;;;131.60;36.65;;;8.20;99.90;;;;;;5034611;28;20078;-67
2022/11/29 13:04:44;;;;;;;124.35;34.88;;;6.70;99.90;;;;;;5034703;28;20123;-67
2022/11/29 13:07:29;;;;;;;140.05;38.35;;;7.10;99.90;;;;;;5032706;28;20033;-67
2022/11/29 13:10:14;;;;;;;131.20;35.97;;;7.30;99.90;;;;;;5008326;28;20246;-67
2022/11/29 13:12:54;;;;;;;130.68;35.13;;;7.70;99.90;;;;;;5033133;28;20080;-68
2022/11/29 13:15:23;;;;;;;119.35;32.55;;;7.80;99.90;;;;;;5034221;28;20100;-67
2022/11/29 13:18:24;;;;;;;137.18;34.55;;;8.10;99.90;;;;;;5034716;28;20142;-69
2022/11/29 13:20:53;;;;;;;153.50;38.67;;;7.70;99.90;;;;;;4990905;28;20106;-66
2022/11/29 13:23:43;;;;;;;136.35;36.40;;;6.30;99.90;;;;;;5034610;28;20033;-66
2022/11/29 13:26:11;;;;;;;100.70;31.48;;;7.80;99.90;;;;;;5039601;28;20102;-66
2022/11/29 13:28:40;;;;;;;127.40;30.35;;;8.00;99.90;;;;;;5036100;28;20106;-67
2022/11/29 13:31:11;;;;;;;144.73;33.30;;;6.70;99.90;;;;;;5038172;28;20037;-68